PH-0053 weather

Manila Hotel Heliport
Manila South Port, Philippines

Public forecast

Using degrees Celsius for public forecast. Weather courtesy of forecast.io.

Closest aviation weather report (METAR) to Manila Hotel Heliport

Closest report is Ninoy Aquino International Airport, 5.2 nm (9.7 km) SSE. Retrieved 2020/04/05 09:00 UTC (52 minutes ago):

RPLL 050900Z 13009G19KT 080V190 9999 FEW025 33/18 Q1010 NOSIG RMK A2983

Closest aviation forecast (TAF) to Manila Hotel Heliport

Closest forecast is Ninoy Aquino International Airport, 5.2 nm (9.7 km) SSE. Retrieved 2020/04/05 06:00 UTC (4 hours ago):

TAF RPLL 050500Z 0506/0612 10009KT 9999 FEW025 TX35/0506Z TN35/0506Z TN25/0621Z TEMPO 0506/0512 12014KT TEMPO 0512/0518 08006KT